sensor_id;sensor_type;location;lat;lon;timestamp;temperature;humidity
8910;DHT22;4490;49.072;8.804;2023-03-23T00:01:04;15.40;69.20
8910;DHT22;4490;49.072;8.804;2023-03-23T00:03:30;15.30;69.20
8910;DHT22;4490;49.072;8.804;2023-03-23T00:05:58;15.30;69.30
8910;DHT22;4490;49.072;8.804;2023-03-23T00:08:32;15.30;69.30
8910;DHT22;4490;49.072;8.804;2023-03-23T00:10:58;15.30;69.50
8910;DHT22;4490;49.072;8.804;2023-03-23T00:13:28;15.30;69.50
8910;DHT22;4490;49.072;8.804;2023-03-23T00:15:54;15.30;69.60
8910;DHT22;4490;49.072;8.804;2023-03-23T00:18:23;15.30;69.60
8910;DHT22;4490;49.072;8.804;2023-03-23T00:20:53;15.30;69.60
8910;DHT22;4490;49.072;8.804;2023-03-23T00:23:21;15.30;69.60
8910;DHT22;4490;49.072;8.804;2023-03-23T00:25:49;15.20;69.60
8910;DHT22;4490;49.072;8.804;2023-03-23T00:28:16;15.20;69.60
8910;DHT22;4490;49.072;8.804;2023-03-23T00:30:42;15.20;69.70
8910;DHT22;4490;49.072;8.804;2023-03-23T00:33:10;15.20;69.90
8910;DHT22;4490;49.072;8.804;2023-03-23T00:35:38;15.20;69.90
8910;DHT22;4490;49.072;8.804;2023-03-23T00:38:05;15.10;70.20
8910;DHT22;4490;49.072;8.804;2023-03-23T00:40:30;15.10;70.30
8910;DHT22;4490;49.072;8.804;2023-03-23T00:42:56;15.10;70.40
8910;DHT22;4490;49.072;8.804;2023-03-23T00:45:22;15.00;70.50
8910;DHT22;4490;49.072;8.804;2023-03-23T00:47:49;15.00;70.60
8910;DHT22;4490;49.072;8.804;2023-03-23T00:50:16;15.00;71.40
8910;DHT22;4490;49.072;8.804;2023-03-23T00:52:43;15.00;70.50
8910;DHT22;4490;49.072;8.804;2023-03-23T00:55:09;15.00;70.30
8910;DHT22;4490;49.072;8.804;2023-03-23T00:57:34;15.00;70.10
8910;DHT22;4490;49.072;8.804;2023-03-23T01:00:00;15.10;70.00
8910;DHT22;4490;49.072;8.804;2023-03-23T01:02:26;15.10;70.00
8910;DHT22;4490;49.072;8.804;2023-03-23T01:04:52;15.10;69.80
8910;DHT22;4490;49.072;8.804;2023-03-23T01:07:19;15.10;69.70
8910;DHT22;4490;49.072;8.804;2023-03-23T01:09:46;15.10;69.70
8910;DHT22;4490;49.072;8.804;2023-03-23T01:12:12;15.10;69.70
8910;DHT22;4490;49.072;8.804;2023-03-23T01:14:38;15.20;70.50
8910;DHT22;4490;49.072;8.804;2023-03-23T01:17:04;15.10;69.80
8910;DHT22;4490;49.072;8.804;2023-03-23T01:19:29;15.20;69.80
8910;DHT22;4490;49.072;8.804;2023-03-23T01:21:55;15.20;69.80
8910;DHT22;4490;49.072;8.804;2023-03-23T01:24:21;15.20;69.90
8910;DHT22;4490;49.072;8.804;2023-03-23T01:26:47;15.10;70.10
8910;DHT22;4490;49.072;8.804;2023-03-23T01:29:13;15.00;70.00
8910;DHT22;4490;49.072;8.804;2023-03-23T01:31:39;15.00;70.00
8910;DHT22;4490;49.072;8.804;2023-03-23T01:34:05;15.00;70.00
8910;DHT22;4490;49.072;8.804;2023-03-23T01:36:31;15.00;70.20
8910;DHT22;4490;49.072;8.804;2023-03-23T01:39:02;14.90;70.80
8910;DHT22;4490;49.072;8.804;2023-03-23T01:41:30;14.90;70.20
8910;DHT22;4490;49.072;8.804;2023-03-23T01:46:31;14.90;70.10
8910;DHT22;4490;49.072;8.804;2023-03-23T01:49:04;14.90;70.10
8910;DHT22;4490;49.072;8.804;2023-03-23T01:51:39;14.90;70.20
8910;DHT22;4490;49.072;8.804;2023-03-23T01:54:08;14.90;70.10
8910;DHT22;4490;49.072;8.804;2023-03-23T01:56:40;14.90;70.10
8910;DHT22;4490;49.072;8.804;2023-03-23T01:59:08;14.90;70.00
8910;DHT22;4490;49.072;8.804;2023-03-23T02:01:35;14.90;70.70
8910;DHT22;4490;49.072;8.804;2023-03-23T02:04:04;14.90;70.00
8910;DHT22;4490;49.072;8.804;2023-03-23T02:06:30;15.00;70.10
8910;DHT22;4490;49.072;8.804;2023-03-23T02:08:56;14.90;69.90
8910;DHT22;4490;49.072;8.804;2023-03-23T02:11:23;14.90;70.00
8910;DHT22;4490;49.072;8.804;2023-03-23T02:13:49;14.90;70.40
8910;DHT22;4490;49.072;8.804;2023-03-23T02:35:39;14.70;71.50
8910;DHT22;4490;49.072;8.804;2023-03-23T02:38:15;14.70;71.70
8910;DHT22;4490;49.072;8.804;2023-03-23T02:40:45;14.70;71.90
8910;DHT22;4490;49.072;8.804;2023-03-23T02:43:14;14.60;71.90
8910;DHT22;4490;49.072;8.804;2023-03-23T02:45:42;14.70;72.30
8910;DHT22;4490;49.072;8.804;2023-03-23T02:48:09;14.70;72.40
8910;DHT22;4490;49.072;8.804;2023-03-23T02:50:36;14.70;73.30
8910;DHT22;4490;49.072;8.804;2023-03-23T02:53:05;14.60;72.40
8910;DHT22;4490;49.072;8.804;2023-03-23T02:55:33;14.70;72.40
8910;DHT22;4490;49.072;8.804;2023-03-23T02:58:00;14.70;72.20
8910;DHT22;4490;49.072;8.804;2023-03-23T03:00:28;14.70;72.20
8910;DHT22;4490;49.072;8.804;2023-03-23T03:02:56;14.70;72.20
8910;DHT22;4490;49.072;8.804;2023-03-23T03:08:05;14.70;72.10
8910;DHT22;4490;49.072;8.804;2023-03-23T03:10:46;14.80;72.20
8910;DHT22;4490;49.072;8.804;2023-03-23T03:13:27;14.80;72.10
8910;DHT22;4490;49.072;8.804;2023-03-23T03:16:03;14.80;72.40
8910;DHT22;4490;49.072;8.804;2023-03-23T03:21:24;14.80;72.00
8910;DHT22;4490;49.072;8.804;2023-03-23T03:23:53;14.80;72.00
8910;DHT22;4490;49.072;8.804;2023-03-23T03:26:20;14.80;72.20
8910;DHT22;4490;49.072;8.804;2023-03-23T03:28:47;14.80;72.40
8910;DHT22;4490;49.072;8.804;2023-03-23T03:31:17;14.80;72.40
8910;DHT22;4490;49.072;8.804;2023-03-23T03:33:44;14.80;73.30
8910;DHT22;4490;49.072;8.804;2023-03-23T03:36:18;14.80;72.60
8910;DHT22;4490;49.072;8.804;2023-03-23T03:38:47;14.80;72.70
8910;DHT22;4490;49.072;8.804;2023-03-23T03:41:14;14.80;72.60
8910;DHT22;4490;49.072;8.804;2023-03-23T03:43:40;14.80;72.70
8910;DHT22;4490;49.072;8.804;2023-03-23T03:46:06;14.80;72.90
8910;DHT22;4490;49.072;8.804;2023-03-23T03:48:32;14.80;72.70
8910;DHT22;4490;49.072;8.804;2023-03-23T03:50:57;14.80;72.60
8910;DHT22;4490;49.072;8.804;2023-03-23T03:53:26;14.90;72.70
8910;DHT22;4490;49.072;8.804;2023-03-23T03:55:51;14.90;72.60
8910;DHT22;4490;49.072;8.804;2023-03-23T03:58:21;14.90;72.60
8910;DHT22;4490;49.072;8.804;2023-03-23T04:00:46;14.90;72.50
8910;DHT22;4490;49.072;8.804;2023-03-23T04:03:13;14.90;72.40
8910;DHT22;4490;49.072;8.804;2023-03-23T04:05:39;15.00;72.30
8910;DHT22;4490;49.072;8.804;2023-03-23T04:08:05;15.00;72.00
8910;DHT22;4490;49.072;8.804;2023-03-23T04:10:32;15.00;71.80
8910;DHT22;4490;49.072;8.804;2023-03-23T04:12:59;15.10;71.80
8910;DHT22;4490;49.072;8.804;2023-03-23T04:15:25;15.10;71.60
8910;DHT22;4490;49.072;8.804;2023-03-23T04:17:51;15.20;71.60
8910;DHT22;4490;49.072;8.804;2023-03-23T04:20:17;15.20;72.20
8910;DHT22;4490;49.072;8.804;2023-03-23T04:22:44;15.20;71.30
8910;DHT22;4490;49.072;8.804;2023-03-23T04:25:11;15.20;71.30
8910;DHT22;4490;49.072;8.804;2023-03-23T04:27:39;15.30;72.20
8910;DHT22;4490;49.072;8.804;2023-03-23T04:30:09;15.30;71.50
8910;DHT22;4490;49.072;8.804;2023-03-23T04:32:35;15.30;71.40
8910;DHT22;4490;49.072;8.804;2023-03-23T04:35:06;15.30;71.30
8910;DHT22;4490;49.072;8.804;2023-03-23T04:37:32;15.40;71.30
8910;DHT22;4490;49.072;8.804;2023-03-23T04:39:59;15.40;71.20
8910;DHT22;4490;49.072;8.804;2023-03-23T04:42:30;15.40;71.20
8910;DHT22;4490;49.072;8.804;2023-03-23T04:44:57;15.50;71.30
8910;DHT22;4490;49.072;8.804;2023-03-23T04:47:25;15.50;71.40
8910;DHT22;4490;49.072;8.804;2023-03-23T04:49:55;15.50;71.50
8910;DHT22;4490;49.072;8.804;2023-03-23T04:52:21;15.50;71.50
8910;DHT22;4490;49.072;8.804;2023-03-23T04:54:47;15.50;71.50
8910;DHT22;4490;49.072;8.804;2023-03-23T04:57:13;15.50;71.60
8910;DHT22;4490;49.072;8.804;2023-03-23T04:59:42;15.40;71.50
8910;DHT22;4490;49.072;8.804;2023-03-23T05:02:09;15.40;71.60
8910;DHT22;4490;49.072;8.804;2023-03-23T05:04:36;15.40;71.70
8910;DHT22;4490;49.072;8.804;2023-03-23T05:07:03;15.40;71.70
8910;DHT22;4490;49.072;8.804;2023-03-23T05:09:29;15.40;71.90
8910;DHT22;4490;49.072;8.804;2023-03-23T05:11:54;15.30;71.70
8910;DHT22;4490;49.072;8.804;2023-03-23T05:14:20;15.40;71.90
8910;DHT22;4490;49.072;8.804;2023-03-23T05:16:46;15.30;71.80
8910;DHT22;4490;49.072;8.804;2023-03-23T05:19:14;15.30;71.90
8910;DHT22;4490;49.072;8.804;2023-03-23T05:21:40;15.40;71.90
8910;DHT22;4490;49.072;8.804;2023-03-23T05:24:06;15.40;71.60
8910;DHT22;4490;49.072;8.804;2023-03-23T05:26:32;15.40;71.60
8910;DHT22;4490;49.072;8.804;2023-03-23T05:28:58;15.40;71.30
8910;DHT22;4490;49.072;8.804;2023-03-23T05:31:24;15.40;70.80
8910;DHT22;4490;49.072;8.804;2023-03-23T05:33:50;15.50;70.90
8910;DHT22;4490;49.072;8.804;2023-03-23T05:36:16;15.50;70.80
8910;DHT22;4490;49.072;8.804;2023-03-23T05:38:42;15.60;71.40
8910;DHT22;4490;49.072;8.804;2023-03-23T05:41:11;15.60;72.10
8910;DHT22;4490;49.072;8.804;2023-03-23T05:43:37;15.60;72.90
8910;DHT22;4490;49.072;8.804;2023-03-23T05:46:02;15.60;73.40
8910;DHT22;4490;49.072;8.804;2023-03-23T05:48:28;15.60;74.10
8910;DHT22;4490;49.072;8.804;2023-03-23T05:50:54;15.50;74.50
8910;DHT22;4490;49.072;8.804;2023-03-23T05:53:20;15.40;75.10
8910;DHT22;4490;49.072;8.804;2023-03-23T05:55:45;15.30;75.80
8910;DHT22;4490;49.072;8.804;2023-03-23T05:58:12;15.30;76.00
8910;DHT22;4490;49.072;8.804;2023-03-23T06:00:37;15.20;76.20
8910;DHT22;4490;49.072;8.804;2023-03-23T06:03:04;15.20;76.40
8910;DHT22;4490;49.072;8.804;2023-03-23T06:05:31;15.10;76.60
8910;DHT22;4490;49.072;8.804;2023-03-23T06:07:58;15.00;76.70
8910;DHT22;4490;49.072;8.804;2023-03-23T06:10:24;15.00;77.10
8910;DHT22;4490;49.072;8.804;2023-03-23T06:12:50;15.00;77.60
8910;DHT22;4490;49.072;8.804;2023-03-23T06:15:17;14.90;78.40
8910;DHT22;4490;49.072;8.804;2023-03-23T06:17:43;14.80;80.00
8910;DHT22;4490;49.072;8.804;2023-03-23T06:20:10;14.80;79.40
8910;DHT22;4490;49.072;8.804;2023-03-23T06:22:37;14.80;79.40
8910;DHT22;4490;49.072;8.804;2023-03-23T06:25:06;14.80;79.50
8910;DHT22;4490;49.072;8.804;2023-03-23T06:27:32;14.70;79.40
8910;DHT22;4490;49.072;8.804;2023-03-23T06:29:58;14.70;79.90
8910;DHT22;4490;49.072;8.804;2023-03-23T06:32:28;14.70;80.40
8910;DHT22;4490;49.072;8.804;2023-03-23T06:34:55;14.70;80.70
8910;DHT22;4490;49.072;8.804;2023-03-23T06:37:22;14.70;80.60
8910;DHT22;4490;49.072;8.804;2023-03-23T06:39:48;14.70;80.90
8910;DHT22;4490;49.072;8.804;2023-03-23T06:42:14;14.70;81.00
8910;DHT22;4490;49.072;8.804;2023-03-23T06:44:40;14.70;81.10
8910;DHT22;4490;49.072;8.804;2023-03-23T06:47:05;14.70;81.10
8910;DHT22;4490;49.072;8.804;2023-03-23T06:49:33;14.70;81.40
8910;DHT22;4490;49.072;8.804;2023-03-23T06:51:58;14.70;81.70
8910;DHT22;4490;49.072;8.804;2023-03-23T06:54:27;14.70;82.10
8910;DHT22;4490;49.072;8.804;2023-03-23T06:56:52;14.70;82.30
8910;DHT22;4490;49.072;8.804;2023-03-23T06:59:18;14.60;82.60
8910;DHT22;4490;49.072;8.804;2023-03-23T07:01:44;14.60;82.80
8910;DHT22;4490;49.072;8.804;2023-03-23T07:04:12;14.60;83.10
8910;DHT22;4490;49.072;8.804;2023-03-23T07:06:37;14.60;83.60
8910;DHT22;4490;49.072;8.804;2023-03-23T07:09:03;14.60;83.90
8910;DHT22;4490;49.072;8.804;2023-03-23T07:11:29;14.60;84.40
8910;DHT22;4490;49.072;8.804;2023-03-23T07:13:55;14.60;85.00
8910;DHT22;4490;49.072;8.804;2023-03-23T07:16:20;14.60;85.50
8910;DHT22;4490;49.072;8.804;2023-03-23T07:18:46;14.50;85.60
8910;DHT22;4490;49.072;8.804;2023-03-23T07:21:12;14.50;86.30
8910;DHT22;4490;49.072;8.804;2023-03-23T07:23:37;14.50;86.70
8910;DHT22;4490;49.072;8.804;2023-03-23T07:26:03;14.40;86.90
8910;DHT22;4490;49.072;8.804;2023-03-23T07:28:29;14.40;87.00
8910;DHT22;4490;49.072;8.804;2023-03-23T07:30:55;14.30;88.20
8910;DHT22;4490;49.072;8.804;2023-03-23T07:33:21;14.30;89.10
8910;DHT22;4490;49.072;8.804;2023-03-23T07:35:47;14.30;89.50
8910;DHT22;4490;49.072;8.804;2023-03-23T07:38:13;14.30;89.50
8910;DHT22;4490;49.072;8.804;2023-03-23T07:40:39;14.20;89.60
8910;DHT22;4490;49.072;8.804;2023-03-23T07:43:06;14.20;89.30
8910;DHT22;4490;49.072;8.804;2023-03-23T07:45:32;14.30;89.60
8910;DHT22;4490;49.072;8.804;2023-03-23T07:47:59;14.30;90.00
8910;DHT22;4490;49.072;8.804;2023-03-23T07:50:25;14.30;90.00
8910;DHT22;4490;49.072;8.804;2023-03-23T07:52:54;14.40;90.20
8910;DHT22;4490;49.072;8.804;2023-03-23T07:55:20;14.30;90.50
8910;DHT22;4490;49.072;8.804;2023-03-23T07:57:47;14.30;90.60
8910;DHT22;4490;49.072;8.804;2023-03-23T08:00:15;14.30;90.80
8910;DHT22;4490;49.072;8.804;2023-03-23T08:02:45;14.30;91.30
8910;DHT22;4490;49.072;8.804;2023-03-23T08:05:11;14.30;91.50
8910;DHT22;4490;49.072;8.804;2023-03-23T08:07:39;14.30;92.40
8910;DHT22;4490;49.072;8.804;2023-03-23T08:10:06;14.40;93.10
8910;DHT22;4490;49.072;8.804;2023-03-23T08:12:36;14.30;93.40
8910;DHT22;4490;49.072;8.804;2023-03-23T08:15:03;14.30;94.30
8910;DHT22;4490;49.072;8.804;2023-03-23T08:17:28;14.20;95.30
8910;DHT22;4490;49.072;8.804;2023-03-23T08:19:54;14.20;96.20
8910;DHT22;4490;49.072;8.804;2023-03-23T08:22:19;14.20;96.90
8910;DHT22;4490;49.072;8.804;2023-03-23T08:24:46;14.20;97.80
8910;DHT22;4490;49.072;8.804;2023-03-23T08:27:12;14.20;98.00
8910;DHT22;4490;49.072;8.804;2023-03-23T08:29:37;14.20;99.40
8910;DHT22;4490;49.072;8.804;2023-03-23T08:32:04;14.20;99.90
8910;DHT22;4490;49.072;8.804;2023-03-23T08:34:30;14.20;99.90
8910;DHT22;4490;49.072;8.804;2023-03-23T08:36:56;14.20;99.90
8910;DHT22;4490;49.072;8.804;2023-03-23T08:39:22;14.20;99.90
8910;DHT22;4490;49.072;8.804;2023-03-23T08:41:49;14.30;99.90
8910;DHT22;4490;49.072;8.804;2023-03-23T08:44:14;14.30;99.90
8910;DHT22;4490;49.072;8.804;2023-03-23T08:46:41;14.30;99.90
8910;DHT22;4490;49.072;8.804;2023-03-23T08:49:06;14.30;99.90
8910;DHT22;4490;49.072;8.804;2023-03-23T08:51:33;14.30;99.90
8910;DHT22;4490;49.072;8.804;2023-03-23T08:53:58;14.30;99.90
8910;DHT22;4490;49.072;8.804;2023-03-23T08:56:24;14.30;99.90
8910;DHT22;4490;49.072;8.804;2023-03-23T08:58:50;14.40;99.90
8910;DHT22;4490;49.072;8.804;2023-03-23T09:01:16;14.40;99.90
8910;DHT22;4490;49.072;8.804;2023-03-23T09:03:41;14.40;99.90
8910;DHT22;4490;49.072;8.804;2023-03-23T09:06:09;14.50;99.90
8910;DHT22;4490;49.072;8.804;2023-03-23T09:08:37;14.50;99.90
8910;DHT22;4490;49.072;8.804;2023-03-23T09:11:05;14.50;99.90
8910;DHT22;4490;49.072;8.804;2023-03-23T09:13:32;14.60;99.90
8910;DHT22;4490;49.072;8.804;2023-03-23T09:15:58;14.60;99.90
8910;DHT22;4490;49.072;8.804;2023-03-23T09:18:23;14.70;99.90
8910;DHT22;4490;49.072;8.804;2023-03-23T09:20:50;14.70;99.70
8910;DHT22;4490;49.072;8.804;2023-03-23T09:23:16;14.70;99.70
8910;DHT22;4490;49.072;8.804;2023-03-23T09:25:42;14.70;99.90
8910;DHT22;4490;49.072;8.804;2023-03-23T09:28:08;14.70;99.90
8910;DHT22;4490;49.072;8.804;2023-03-23T09:30:35;14.80;99.90
8910;DHT22;4490;49.072;8.804;2023-03-23T09:33:03;14.80;99.90
8910;DHT22;4490;49.072;8.804;2023-03-23T09:35:29;14.80;99.90
8910;DHT22;4490;49.072;8.804;2023-03-23T09:37:56;14.70;99.90
8910;DHT22;4490;49.072;8.804;2023-03-23T09:49:00;14.40;99.90
8910;DHT22;4490;49.072;8.804;2023-03-23T09:51:50;14.30;99.90
8910;DHT22;4490;49.072;8.804;2023-03-23T09:56:55;14.10;99.90
8910;DHT22;4490;49.072;8.804;2023-03-23T09:59:33;14.10;99.90
8910;DHT22;4490;49.072;8.804;2023-03-23T10:02:32;14.00;99.90
8910;DHT22;4490;49.072;8.804;2023-03-23T10:05:25;14.00;99.90
8910;DHT22;4490;49.072;8.804;2023-03-23T10:07:52;14.00;99.90
8910;DHT22;4490;49.072;8.804;2023-03-23T10:10:18;14.00;99.90
8910;DHT22;4490;49.072;8.804;2023-03-23T10:13:11;14.00;99.90
8910;DHT22;4490;49.072;8.804;2023-03-23T10:15:40;14.10;99.90
8910;DHT22;4490;49.072;8.804;2023-03-23T10:18:25;14.10;99.90
8910;DHT22;4490;49.072;8.804;2023-03-23T10:21:02;14.10;99.90
8910;DHT22;4490;49.072;8.804;2023-03-23T10:28:54;14.00;99.90
8910;DHT22;4490;49.072;8.804;2023-03-23T10:31:27;14.00;99.90
8910;DHT22;4490;49.072;8.804;2023-03-23T10:33:57;14.00;99.90
8910;DHT22;4490;49.072;8.804;2023-03-23T10:39:23;14.00;99.90
8910;DHT22;4490;49.072;8.804;2023-03-23T10:41:49;14.00;99.90
8910;DHT22;4490;49.072;8.804;2023-03-23T10:44:20;14.00;99.90
8910;DHT22;4490;49.072;8.804;2023-03-23T10:49:23;14.00;99.90
8910;DHT22;4490;49.072;8.804;2023-03-23T10:54:37;14.00;99.90
8910;DHT22;4490;49.072;8.804;2023-03-23T10:57:17;14.00;99.90
8910;DHT22;4490;49.072;8.804;2023-03-23T10:59:45;14.00;99.90
8910;DHT22;4490;49.072;8.804;2023-03-23T11:02:17;14.00;99.90
8910;DHT22;4490;49.072;8.804;2023-03-23T11:05:05;14.10;99.90
8910;DHT22;4490;49.072;8.804;2023-03-23T11:07:34;14.20;99.90
8910;DHT22;4490;49.072;8.804;2023-03-23T11:10:25;14.20;99.90
8910;DHT22;4490;49.072;8.804;2023-03-23T11:12:51;14.20;99.90
8910;DHT22;4490;49.072;8.804;2023-03-23T11:15:27;14.20;99.90
8910;DHT22;4490;49.072;8.804;2023-03-23T11:18:00;14.20;99.90
8910;DHT22;4490;49.072;8.804;2023-03-23T11:20:27;14.20;99.90
8910;DHT22;4490;49.072;8.804;2023-03-23T11:22:55;14.20;99.90
8910;DHT22;4490;49.072;8.804;2023-03-23T11:25:21;14.20;99.90
8910;DHT22;4490;49.072;8.804;2023-03-23T11:27:47;14.20;99.90
8910;DHT22;4490;49.072;8.804;2023-03-23T11:30:24;14.20;99.90
8910;DHT22;4490;49.072;8.804;2023-03-23T11:32:50;14.20;99.90
8910;DHT22;4490;49.072;8.804;2023-03-23T11:35:21;14.20;99.90
8910;DHT22;4490;49.072;8.804;2023-03-23T11:37:58;14.20;99.90
8910;DHT22;4490;49.072;8.804;2023-03-23T11:40:27;14.30;99.90
8910;DHT22;4490;49.072;8.804;2023-03-23T11:50:43;14.30;99.90
8910;DHT22;4490;49.072;8.804;2023-03-23T11:56:11;14.40;99.90
8910;DHT22;4490;49.072;8.804;2023-03-23T11:58:39;14.40;99.90
8910;DHT22;4490;49.072;8.804;2023-03-23T12:04:12;14.50;99.90
8910;DHT22;4490;49.072;8.804;2023-03-23T12:06:57;14.50;99.90
8910;DHT22;4490;49.072;8.804;2023-03-23T12:09:47;14.60;99.90
8910;DHT22;4490;49.072;8.804;2023-03-23T12:12:30;14.60;99.90
8910;DHT22;4490;49.072;8.804;2023-03-23T12:36:54;14.80;99.90
8910;DHT22;4490;49.072;8.804;2023-03-23T12:44:43;15.00;99.90
8910;DHT22;4490;49.072;8.804;2023-03-23T12:49:49;15.00;99.90
8910;DHT22;4490;49.072;8.804;2023-03-23T12:52:27;15.00;99.90
8910;DHT22;4490;49.072;8.804;2023-03-23T12:55:14;15.00;99.90
8910;DHT22;4490;49.072;8.804;2023-03-23T12:58:01;15.00;99.90
8910;DHT22;4490;49.072;8.804;2023-03-23T13:06:40;15.00;99.90
8910;DHT22;4490;49.072;8.804;2023-03-23T13:09:20;15.00;99.90
8910;DHT22;4490;49.072;8.804;2023-03-23T13:11:49;15.10;99.90
8910;DHT22;4490;49.072;8.804;2023-03-23T13:17:15;15.10;99.90
8910;DHT22;4490;49.072;8.804;2023-03-23T13:23:23;15.10;99.90
8910;DHT22;4490;49.072;8.804;2023-03-23T13:25:54;15.10;99.90
8910;DHT22;4490;49.072;8.804;2023-03-23T13:28:30;15.10;99.90
8910;DHT22;4490;49.072;8.804;2023-03-23T13:33:22;15.20;99.90
8910;DHT22;4490;49.072;8.804;2023-03-23T13:35:49;15.20;99.90
8910;DHT22;4490;49.072;8.804;2023-03-23T13:38:24;15.20;99.90
8910;DHT22;4490;49.072;8.804;2023-03-23T13:40:51;15.20;99.90
8910;DHT22;4490;49.072;8.804;2023-03-23T13:43:34;15.20;99.90
8910;DHT22;4490;49.072;8.804;2023-03-23T13:49:15;15.40;99.90
8910;DHT22;4490;49.072;8.804;2023-03-23T13:54:14;15.50;99.90
8910;DHT22;4490;49.072;8.804;2023-03-23T13:57:02;15.50;99.90
8910;DHT22;4490;49.072;8.804;2023-03-23T13:59:34;15.60;99.90
8910;DHT22;4490;49.072;8.804;2023-03-23T14:02:29;15.70;99.90
8910;DHT22;4490;49.072;8.804;2023-03-23T14:04:56;15.80;98.40
8910;DHT22;4490;49.072;8.804;2023-03-23T14:07:22;15.90;97.90
8910;DHT22;4490;49.072;8.804;2023-03-23T14:09:49;15.90;97.70
8910;DHT22;4490;49.072;8.804;2023-03-23T14:12:26;16.00;97.80
8910;DHT22;4490;49.072;8.804;2023-03-23T14:14:59;16.00;97.50
8910;DHT22;4490;49.072;8.804;2023-03-23T14:17:33;16.10;97.20
8910;DHT22;4490;49.072;8.804;2023-03-23T14:20:00;16.10;97.70
8910;DHT22;4490;49.072;8.804;2023-03-23T14:22:34;16.10;96.70
8910;DHT22;4490;49.072;8.804;2023-03-23T14:25:17;16.20;96.80
8910;DHT22;4490;49.072;8.804;2023-03-23T14:27:44;16.10;97.40
8910;DHT22;4490;49.072;8.804;2023-03-23T14:30:16;16.10;97.30
8910;DHT22;4490;49.072;8.804;2023-03-23T14:32:43;16.20;96.20
8910;DHT22;4490;49.072;8.804;2023-03-23T14:35:30;16.20;96.00
8910;DHT22;4490;49.072;8.804;2023-03-23T14:37:57;16.20;96.00
8910;DHT22;4490;49.072;8.804;2023-03-23T14:40:27;16.20;95.80
8910;DHT22;4490;49.072;8.804;2023-03-23T14:42:53;16.20;95.50
8910;DHT22;4490;49.072;8.804;2023-03-23T14:45:21;16.20;95.40
8910;DHT22;4490;49.072;8.804;2023-03-23T14:47:51;16.20;95.30
8910;DHT22;4490;49.072;8.804;2023-03-23T14:50:29;16.30;95.40
8910;DHT22;4490;49.072;8.804;2023-03-23T14:53:01;16.30;95.00
8910;DHT22;4490;49.072;8.804;2023-03-23T14:55:27;16.20;95.60
8910;DHT22;4490;49.072;8.804;2023-03-23T14:58:06;16.30;96.20
8910;DHT22;4490;49.072;8.804;2023-03-23T15:00:38;16.20;97.10
8910;DHT22;4490;49.072;8.804;2023-03-23T15:03:07;16.20;97.80
8910;DHT22;4490;49.072;8.804;2023-03-23T15:05:40;16.10;98.60
8910;DHT22;4490;49.072;8.804;2023-03-23T15:08:11;16.10;99.30
8910;DHT22;4490;49.072;8.804;2023-03-23T15:10:37;16.10;99.90
8910;DHT22;4490;49.072;8.804;2023-03-23T15:13:04;16.00;99.90
8910;DHT22;4490;49.072;8.804;2023-03-23T15:15:31;16.00;99.90
8910;DHT22;4490;49.072;8.804;2023-03-23T15:17:59;16.00;99.90
8910;DHT22;4490;49.072;8.804;2023-03-23T15:20:29;16.00;99.90
8910;DHT22;4490;49.072;8.804;2023-03-23T15:22:57;15.90;99.90
8910;DHT22;4490;49.072;8.804;2023-03-23T15:25:32;15.90;99.90
8910;DHT22;4490;49.072;8.804;2023-03-23T15:28:14;15.90;99.90
8910;DHT22;4490;49.072;8.804;2023-03-23T15:31:07;15.80;99.90
8910;DHT22;4490;49.072;8.804;2023-03-23T15:33:37;15.80;99.90
8910;DHT22;4490;49.072;8.804;2023-03-23T15:36:08;15.70;99.90
8910;DHT22;4490;49.072;8.804;2023-03-23T15:38:35;15.70;99.90
8910;DHT22;4490;49.072;8.804;2023-03-23T15:41:06;15.70;99.90
8910;DHT22;4490;49.072;8.804;2023-03-23T15:43:52;15.70;99.90
8910;DHT22;4490;49.072;8.804;2023-03-23T15:46:21;15.60;99.90
8910;DHT22;4490;49.072;8.804;2023-03-23T15:51:26;15.60;99.90
8910;DHT22;4490;49.072;8.804;2023-03-23T15:53:53;15.50;99.90
8910;DHT22;4490;49.072;8.804;2023-03-23T15:56:19;15.60;99.90
8910;DHT22;4490;49.072;8.804;2023-03-23T15:58:45;15.50;99.90
8910;DHT22;4490;49.072;8.804;2023-03-23T16:01:14;15.50;99.90
8910;DHT22;4490;49.072;8.804;2023-03-23T16:03:47;15.50;99.90
8910;DHT22;4490;49.072;8.804;2023-03-23T16:06:15;15.50;99.90
8910;DHT22;4490;49.072;8.804;2023-03-23T16:08:41;15.40;99.90
8910;DHT22;4490;49.072;8.804;2023-03-23T16:11:11;15.40;99.90
8910;DHT22;4490;49.072;8.804;2023-03-23T16:13:37;15.40;99.90
8910;DHT22;4490;49.072;8.804;2023-03-23T16:16:03;15.30;99.90
8910;DHT22;4490;49.072;8.804;2023-03-23T16:18:30;15.30;99.90
8910;DHT22;4490;49.072;8.804;2023-03-23T16:20:56;15.30;99.90
8910;DHT22;4490;49.072;8.804;2023-03-23T16:23:21;15.30;99.90
8910;DHT22;4490;49.072;8.804;2023-03-23T16:25:48;15.30;99.90
8910;DHT22;4490;49.072;8.804;2023-03-23T16:28:14;15.30;99.90
8910;DHT22;4490;49.072;8.804;2023-03-23T16:30:41;15.30;99.90
8910;DHT22;4490;49.072;8.804;2023-03-23T16:33:07;15.30;99.90
8910;DHT22;4490;49.072;8.804;2023-03-23T16:35:33;15.20;99.90
8910;DHT22;4490;49.072;8.804;2023-03-23T16:37:59;15.20;99.90
8910;DHT22;4490;49.072;8.804;2023-03-23T16:40:25;15.20;99.90
8910;DHT22;4490;49.072;8.804;2023-03-23T16:42:52;15.20;99.90
8910;DHT22;4490;49.072;8.804;2023-03-23T16:45:18;15.20;99.90
8910;DHT22;4490;49.072;8.804;2023-03-23T16:47:44;15.20;99.90
8910;DHT22;4490;49.072;8.804;2023-03-23T16:50:13;15.20;99.90
8910;DHT22;4490;49.072;8.804;2023-03-23T16:52:41;15.20;99.90
8910;DHT22;4490;49.072;8.804;2023-03-23T16:55:07;15.20;99.90
8910;DHT22;4490;49.072;8.804;2023-03-23T16:57:34;15.10;99.90
8910;DHT22;4490;49.072;8.804;2023-03-23T17:00:03;15.20;99.90
8910;DHT22;4490;49.072;8.804;2023-03-23T17:02:31;15.20;99.90
8910;DHT22;4490;49.072;8.804;2023-03-23T17:04:56;15.10;99.90
8910;DHT22;4490;49.072;8.804;2023-03-23T17:07:24;15.10;99.90
8910;DHT22;4490;49.072;8.804;2023-03-23T17:09:50;15.10;99.90
8910;DHT22;4490;49.072;8.804;2023-03-23T17:12:16;15.10;99.90
8910;DHT22;4490;49.072;8.804;2023-03-23T17:14:42;15.10;99.90
8910;DHT22;4490;49.072;8.804;2023-03-23T17:17:08;15.10;99.90
8910;DHT22;4490;49.072;8.804;2023-03-23T17:19:34;15.00;99.90
8910;DHT22;4490;49.072;8.804;2023-03-23T17:22:00;15.10;99.90
8910;DHT22;4490;49.072;8.804;2023-03-23T17:24:26;15.00;99.90
8910;DHT22;4490;49.072;8.804;2023-03-23T17:26:52;15.00;99.90
8910;DHT22;4490;49.072;8.804;2023-03-23T17:29:18;15.00;99.90
8910;DHT22;4490;49.072;8.804;2023-03-23T17:31:44;15.00;99.90
8910;DHT22;4490;49.072;8.804;2023-03-23T17:34:10;15.00;99.90
8910;DHT22;4490;49.072;8.804;2023-03-23T17:36:36;15.00;99.90
8910;DHT22;4490;49.072;8.804;2023-03-23T17:39:02;14.90;99.90
8910;DHT22;4490;49.072;8.804;2023-03-23T17:41:28;14.90;99.90
8910;DHT22;4490;49.072;8.804;2023-03-23T17:43:54;14.90;99.90
8910;DHT22;4490;49.072;8.804;2023-03-23T17:46:20;14.80;99.90
8910;DHT22;4490;49.072;8.804;2023-03-23T17:48:45;14.80;99.90
8910;DHT22;4490;49.072;8.804;2023-03-23T17:51:11;14.80;99.90
8910;DHT22;4490;49.072;8.804;2023-03-23T17:53:37;14.70;99.90
8910;DHT22;4490;49.072;8.804;2023-03-23T17:56:04;14.70;99.90
8910;DHT22;4490;49.072;8.804;2023-03-23T17:58:30;14.70;99.90
8910;DHT22;4490;49.072;8.804;2023-03-23T18:00:56;14.70;99.90
8910;DHT22;4490;49.072;8.804;2023-03-23T18:03:23;14.70;99.90
8910;DHT22;4490;49.072;8.804;2023-03-23T18:05:49;14.70;99.90
8910;DHT22;4490;49.072;8.804;2023-03-23T18:08:17;14.70;99.90
8910;DHT22;4490;49.072;8.804;2023-03-23T18:10:42;14.70;99.90